Marfret Guyane — FNMV — position and weather

sailwx.info

Track history (hours):
 
Tides and Currents Weather Stations Pressure Air Temp Water Temp Dewpoint Dewpoint Depression Visibility Wind Speed Wind Dir Waves Ship Positions

Marfret Guyane

Last reported at 2014-Jul-17 21:20 UTC. Time now 2014-Aug-01 16:02 UTC.
Position N 17°51' W 063°05'.
Warning: this ship's position is 14 days out of date.

Length 170 m; draft 8.5 m.

Type: Ship (hazmat cat A). MMSI: 226324000.

Date/timePositionNaut miles runAvg speedWind from/ knotsBaromVisibWave heightAir tempDewpointWater temp
2014-Jul-17 21:20N 17°51' W 063°05'  
2014-Jul-12 08:18N 36°40' W 026°55'1418.7
2014-Jul-12 07:33N 36°47' W 026°40'1918.8
2014-Jul-12 06:33N 36°56' W 026°20'1919.0
2014-Jul-12 05:33N 37°06' W 025°59'1918.9
2014-Jul-12 04:34N 37°16' W 025°39'1919.2
2014-Jul-12 03:33N 37°25' W 025°18'1918.8
2014-Jul-12 02:33N 37°36' W 024°59'1918.8
2014-Jul-12 01:33N 37°48' W 024°40'1918.8
2014-Jul-12 00:34N 37°60' W 024°22'1919.2
2014-Jul-11 23:33N 38°12' W 024°03'5818.8
2014-Jul-11 20:28N 38°48' W 023°05'93218.7
2014-Jul-09 18:33N 48°36' W 006°24'22218.1
2014-Jul-09 06:17N 49°50' W 001°04'1617.1
2014-Jul-09 05:20N 49°42' W 000°42'1317.3
2014-Jul-09 04:33N 49°36' W 000°23'1514.8
2014-Jul-09 03:33N 49°30' W 000°03'8 8.3
2014-Jul-09 02:33N 49°28' E 000°10'0 0.2
2014-Jul-09 01:32N 49°29' E 000°10'0 0.0
2014-Jul-09 00:32N 49°29' E 000°10'0 0.0
2014-Jul-08 23:32N 49°29' E 000°10'0 0.0
2014-Jul-08 22:32N 49°29' E 000°10'0 0.0
2014-Jul-08 21:32N 49°29' E 000°10'0 0.0
2014-Jul-08 20:32N 49°29' E 000°10'0 0.0
2014-Jul-08 19:32N 49°29' E 000°10'0 0.0
2014-Jul-08 18:32N 49°29' E 000°10'0 0.0
2014-Jul-08 17:32N 49°29' E 000°10'0 0.0
2014-Jul-08 16:32N 49°29' E 000°10'0 0.0
2014-Jul-08 15:32N 49°29' E 000°10'0 0.0
2014-Jul-08 14:32N 49°29' E 000°10'0 0.0
2014-Jul-08 13:32N 49°29' E 000°10'0 0.0
2014-Jul-08 12:32N 49°29' E 000°10'0 0.0
2014-Jul-08 11:32N 49°29' E 000°10'0 0.0
2014-Jul-08 10:32N 49°29' E 000°10'0 0.0
2014-Jul-08 09:32N 49°29' E 000°10'0 0.0
2014-Jul-08 08:32N 49°29' E 000°10'0 0.0
2014-Jul-08 07:32N 49°29' E 000°10'0 0.0
2014-Jul-08 06:32N 49°29' E 000°10'0 0.1
2014-Jul-08 05:34N 49°29' E 000°10'6 5.7
2014-Jul-08 04:34N 49°30' E 000°01'8 8.3
2014-Jul-08 03:33N 49°26' E 000°13'1110.7
2014-Jul-08 02:33N 49°29' E 000°29'7 6.8
2014-Jul-08 01:33N 49°27' E 000°39'  
Track history (hours):
 
Tides and Currents Weather Stations Pressure Air Temp Water Temp Dewpoint Dewpoint Depression Visibility Wind Speed Wind Dir Waves Ship Positions

Marfret Guyane

Last reported at 2014-Jul-17 21:20 UTC. Time now 2014-Aug-01 16:02 UTC.
Position N 17°51' W 063°05'.
Warning: this ship's position is 14 days out of date.

Length 170 m; draft 8.5 m.

Type: Ship (hazmat cat A). MMSI: 226324000.

Date/timePositionNaut miles runAvg speedWind from/ knotsBaromVisibWave heightAir tempDewpointWater temp
2014-Jul-17 21:20N 17°51' W 063°05'  
2014-Jul-12 08:18N 36°40' W 026°55'1418.7
2014-Jul-12 07:33N 36°47' W 026°40'1918.8
2014-Jul-12 06:33N 36°56' W 026°20'1919.0
2014-Jul-12 05:33N 37°06' W 025°59'1918.9
2014-Jul-12 04:34N 37°16' W 025°39'1919.2
2014-Jul-12 03:33N 37°25' W 025°18'1918.8
2014-Jul-12 02:33N 37°36' W 024°59'1918.8
2014-Jul-12 01:33N 37°48' W 024°40'1918.8
2014-Jul-12 00:34N 37°60' W 024°22'1919.2
2014-Jul-11 23:33N 38°12' W 024°03'5818.8
2014-Jul-11 20:28N 38°48' W 023°05'93218.7
2014-Jul-09 18:33N 48°36' W 006°24'22218.1
2014-Jul-09 06:17N 49°50' W 001°04'1617.1
2014-Jul-09 05:20N 49°42' W 000°42'1317.3
2014-Jul-09 04:33N 49°36' W 000°23'1514.8
2014-Jul-09 03:33N 49°30' W 000°03'8 8.3
2014-Jul-09 02:33N 49°28' E 000°10'0 0.2
2014-Jul-09 01:32N 49°29' E 000°10'0 0.0
2014-Jul-09 00:32N 49°29' E 000°10'0 0.0
2014-Jul-08 23:32N 49°29' E 000°10'0 0.0
2014-Jul-08 22:32N 49°29' E 000°10'0 0.0
2014-Jul-08 21:32N 49°29' E 000°10'0 0.0
2014-Jul-08 20:32N 49°29' E 000°10'0 0.0
2014-Jul-08 19:32N 49°29' E 000°10'0 0.0
2014-Jul-08 18:32N 49°29' E 000°10'0 0.0
2014-Jul-08 17:32N 49°29' E 000°10'0 0.0
2014-Jul-08 16:32N 49°29' E 000°10'0 0.0
2014-Jul-08 15:32N 49°29' E 000°10'0 0.0
2014-Jul-08 14:32N 49°29' E 000°10'0 0.0
2014-Jul-08 13:32N 49°29' E 000°10'0 0.0
2014-Jul-08 12:32N 49°29' E 000°10'0 0.0
2014-Jul-08 11:32N 49°29' E 000°10'0 0.0
2014-Jul-08 10:32N 49°29' E 000°10'0 0.0
2014-Jul-08 09:32N 49°29' E 000°10'0 0.0
2014-Jul-08 08:32N 49°29' E 000°10'0 0.0
2014-Jul-08 07:32N 49°29' E 000°10'0 0.0
2014-Jul-08 06:32N 49°29' E 000°10'0 0.1
2014-Jul-08 05:34N 49°29' E 000°10'6 5.7
2014-Jul-08 04:34N 49°30' E 000°01'8 8.3
2014-Jul-08 03:33N 49°26' E 000°13'1110.7
2014-Jul-08 02:33N 49°29' E 000°29'7 6.8
2014-Jul-08 01:33N 49°27' E 000°39'  

Dump ship's entire track history